Time;durP1;ratioP1;P1;durP2;ratioP2;P2;SDS_P1;SDS_P2;PMS_P1;PMS_P2;Temp;Humidity;BMP_temperature;BMP_pressure;BME280_temperature;BME280_humidity;BME280_pressure;Samples;Min_cycle;Max_cycle;Signal;HPM_P1;HPM_P2
2022/03/03 00:01:55;;;;;;;201.05;88.70;;;;;;;-2.45;61.71;97436.84;1598816;89;25194;-87
2022/03/03 00:04:38;;;;;;;208.15;90.87;;;;;;;-2.44;61.73;97435.41;1604228;89;27409;-88
2022/03/03 00:07:30;;;;;;;213.92;92.42;;;;;;;-2.54;61.87;97408.89;1602232;88;25675;-88
2022/03/03 00:10:07;;;;;;;195.97;86.30;;;;;;;-2.34;61.96;97436.77;1581881;90;25245;-88
2022/03/03 00:12:41;;;;;;;195.00;88.97;;;;;;;-2.30;61.94;97436.88;1589538;89;26243;-87
2022/03/03 00:15:21;;;;;;;204.72;91.57;;;;;;;-2.29;61.89;97434.07;1535323;92;26177;-88
2022/03/03 00:18:16;;;;;;;;;;;;;;;;;;;;;
2022/03/03 00:21:03;;;;;;;218.30;92.30;;;;;;;-2.33;61.94;97434.48;1554984;90;25425;-88
2022/03/03 00:23:35;;;;;;;204.60;90.80;;;;;;;-2.32;62.03;97436.16;1575187;89;26778;-89
2022/03/03 00:26:05;;;;;;;;;;;;;;;-2.29;62.10;97426.63;1582250;89;25184;-88
2022/03/03 00:28:52;;;;;;;208.97;89.03;;;;;;;-2.29;62.18;97423.98;1579313;89;25395;-90
2022/03/03 00:31:44;;;;;;;203.05;92.47;;;;;;;-2.30;62.29;97421.02;1580187;89;27398;-87
2022/03/03 00:34:19;;;;;;;194.17;87.17;;;;;;;-2.32;62.31;97416.33;1601775;89;25215;-92
2022/03/03 00:37:12;;;;;;;192.92;86.32;;;;;;;-2.31;62.37;97414.05;1601167;89;25441;-91
2022/03/03 00:40:12;;;;;;;192.68;84.10;;;;;;;-2.31;62.44;97411.41;1586517;85;25473;-92
2022/03/03 00:43:10;;;;;;;196.63;88.60;;;;;;;-2.33;62.56;97408.89;1655269;86;25317;-88
2022/03/03 00:45:59;;;;;;;192.25;86.08;;;;;;;-2.32;62.57;97403.11;1665445;84;28028;-92
2022/03/03 00:48:34;;;;;;;195.40;84.65;;;;;;;-2.46;62.61;97378.34;1694097;83;25358;-92
2022/03/03 00:51:21;;;;;;;188.00;83.95;;;;;;;-2.41;62.74;97372.16;1697887;83;25235;-88
2022/03/03 00:53:59;;;;;;;182.75;83.03;;;;;;;-2.25;62.83;97392.35;1650201;84;25516;-87
2022/03/03 00:56:39;;;;;;;188.87;85.75;;;;;;;-2.33;62.75;97392.19;1714035;83;25569;-88
2022/03/03 00:59:04;;;;;;;180.80;83.62;;;;;;;-2.34;62.83;97398.44;1689621;83;27456;-88
2022/03/03 01:01:42;;;;;;;;;;;;;;;;;;;;;
2022/03/03 01:04:03;;;;;;;184.55;82.05;;;;;;;-2.34;63.07;97395.80;1657133;84;25531;-88
2022/03/03 01:06:43;;;;;;;188.12;84.25;;;;;;;-2.37;63.09;97390.28;1710728;83;26207;-87
2022/03/03 01:09:39;;;;;;;189.70;87.22;;;;;;;-2.35;63.11;97394.11;1690041;83;25509;-87
2022/03/03 01:12:14;;;;;;;175.15;81.20;;;;;;;-2.36;63.06;97392.44;1686764;83;26120;-87
2022/03/03 01:14:42;;;;;;;163.95;74.80;;;;;;;-2.36;63.19;97389.80;1686332;83;25314;-88
2022/03/03 01:17:20;;;;;;;168.80;76.90;;;;;;;-2.36;63.30;97384.02;1685136;83;25360;-87
2022/03/03 01:19:52;;;;;;;159.30;73.70;;;;;;;-2.34;63.34;97379.93;1674362;84;25676;-88
2022/03/03 01:23:03;;;;;;;;;;;;;;;;;;;;;
2022/03/03 01:25:17;;;;;;;167.43;76.65;;;;;;;-2.41;63.42;97373.48;1673596;85;26100;-87
2022/03/03 01:27:46;;;;;;;161.12;74.10;;;;;;;-2.41;63.41;97378.77;1680688;84;25344;-88
2022/03/03 01:30:22;;;;;;;164.10;73.45;;;;;;;-2.45;63.38;97374.25;1682954;85;25537;-87
2022/03/03 01:32:58;;;;;;;166.40;74.77;;;;;;;-2.47;63.43;97371.37;1680248;84;25512;-88
2022/03/03 01:35:54;;;;;;;156.32;74.12;;;;;;;-2.50;63.41;97374.27;1662826;85;25611;-88
2022/03/03 01:38:43;;;;;;;;;;;;;;;;;;;;;
2022/03/03 01:41:28;;;;;;;;;;;;;;;;;;;;;
2022/03/03 01:44:09;;;;;;;157.03;73.85;;;;;;;-2.59;63.54;97366.17;1680134;85;25407;-87
2022/03/03 01:47:11;;;;;;;156.87;73.05;;;;;;;-2.66;63.58;97366.36;1651373;85;25245;-86
2022/03/03 01:52:23;;;;;;;;;;;;;;;;;;;;;
2022/03/03 01:54:43;;;;;;;161.40;76.20;;;;;;;-2.62;63.87;97358.50;1629298;87;25291;-87
2022/03/03 01:57:22;;;;;;;162.47;76.85;;;;;;;-2.60;63.96;97355.73;1616428;88;25414;-90
2022/03/03 02:00:12;;;;;;;164.43;77.08;;;;;;;-2.59;64.00;97355.59;1598529;88;25917;-87
2022/03/03 02:02:45;;;;;;;158.55;75.12;;;;;;;-2.58;64.07;97351.16;1618550;88;25224;-86
2022/03/03 02:05:36;;;;;;;172.37;77.58;;;;;;;-2.60;64.10;97343.35;1506675;95;26046;-87
2022/03/03 02:08:19;;;;;;;;;;;;;;;;;;;;;
2022/03/03 02:11:15;;;;;;;170.80;77.85;;;;;;;-2.63;64.29;97348.05;1508679;95;25312;-87
2022/03/03 02:13:54;;;;;;;181.72;79.37;;;;;;;-2.61;64.43;97348.28;1509617;93;25745;-86
2022/03/03 02:16:33;;;;;;;172.55;78.05;;;;;;;-2.61;64.54;97344.32;1505656;93;25327;-86
2022/03/03 02:19:17;;;;;;;;;;;;;;;;;;;;;
2022/03/03 02:21:44;;;;;;;166.47;77.10;;;;;;;-2.62;64.66;97331.23;1556512;91;25303;-86
2022/03/03 02:24:15;;;;;;;165.22;76.17;;;;;;;-2.59;64.73;97329.17;1570715;91;30198;-87
2022/03/03 02:26:49;;;;;;;168.65;76.47;;;;;;;-2.56;64.79;97328.08;1568076;91;25324;-88
2022/03/03 02:29:38;;;;;;;162.12;75.45;;;;;;;-2.57;64.77;97317.99;1570639;90;25248;-89
2022/03/03 02:32:17;;;;;;;158.68;71.55;;;;;;;-2.53;64.79;97330.44;1550347;91;27556;-86
2022/03/03 02:34:55;;;;;;;159.20;70.95;;;;;;;-2.63;64.85;97302.65;1532140;92;25721;-88
2022/03/03 02:37:43;;;;;;;149.82;71.60;;;;;;;-2.47;64.89;97319.35;1658303;85;26905;-86
2022/03/03 02:40:12;;;;;;;157.00;72.35;;;;;;;-2.47;64.89;97319.35;1744633;81;25144;-87
2022/03/03 02:42:45;;;;;;;155.43;71.02;;;;;;;-2.45;64.99;97319.22;1790571;80;25072;-87
2022/03/03 02:45:16;;;;;;;152.17;70.85;;;;;;;-2.45;64.98;97308.65;1786949;80;26209;-86
2022/03/03 02:47:55;;;;;;;123.20;55.33;;;;;;;-2.46;65.02;97306.97;1791385;80;25199;-87
2022/03/03 02:50:36;;;;;;;149.65;69.55;;;;;;;-2.44;65.11;97311.64;1787191;80;25600;-88
2022/03/03 02:53:14;;;;;;;159.78;71.47;;;;;;;-2.45;65.15;97309.48;1792604;79;25406;-87
2022/03/03 02:55:54;;;;;;;;;;;;;;;;;;;;;
2022/03/03 02:58:39;;;;;;;155.40;71.02;;;;;;;-2.49;65.32;97304.59;1756158;80;27666;-88
2022/03/03 03:01:17;;;;;;;160.72;73.67;;;;;;;-2.52;65.33;97299.08;1631710;87;25485;-86
2022/03/03 03:03:50;;;;;;;157.85;72.62;;;;;;;-2.48;65.47;97298.33;1609947;86;25661;-86
2022/03/03 03:06:39;;;;;;;161.70;72.65;;;;;;;-2.49;65.39;97296.66;1633117;87;25686;-87
2022/03/03 03:09:11;;;;;;;161.35;77.30;;;;;;;-2.47;65.48;97289.44;1638176;87;25506;-87
2022/03/03 03:12:01;;;;;;;164.62;75.55;;;;;;;-2.44;65.64;97294.47;1636326;87;27390;-89
2022/03/03 03:14:38;;;;;;;162.62;77.78;;;;;;;-2.44;65.61;97295.30;1635372;86;25309;-90
2022/03/03 03:17:17;;;;;;;164.55;78.95;;;;;;;-2.42;65.59;97294.69;1611060;87;25408;-87
2022/03/03 03:19:38;;;;;;;175.53;80.72;;;;;;;-2.41;65.67;97290.21;1633083;87;26749;-86
2022/03/03 03:22:07;;;;;;;184.80;85.47;;;;;;;-2.41;65.71;97287.56;1672110;85;25385;-86
2022/03/03 03:24:39;;;;;;;185.50;85.92;;;;;;;-2.41;65.68;97289.73;1663508;83;27392;-88
2022/03/03 03:27:11;;;;;;;181.90;82.75;;;;;;;-2.38;65.71;97288.14;1718418;83;25175;-90
2022/03/03 03:29:43;;;;;;;187.50;86.85;;;;;;;-2.36;65.71;97293.30;1719196;83;25611;-89
2022/03/03 03:32:12;;;;;;;140.77;65.90;;;;;;;-2.35;65.74;97297.14;1719104;82;25668;-88
2022/03/03 03:37:37;;;;;;;185.65;87.33;;;;;;;-2.28;65.68;97298.75;1727847;80;26169;-91
2022/03/03 03:40:20;;;;;;;189.30;86.25;;;;;;;-2.26;65.67;97291.52;1790393;80;25399;-92
2022/03/03 03:42:49;;;;;;;190.73;91.17;;;;;;;-2.29;65.68;97291.30;1789922;80;25120;-87
2022/03/03 03:45:27;;;;;;;197.30;89.67;;;;;;;-2.30;65.62;97294.10;1793805;79;25206;-88
2022/03/03 03:47:58;;;;;;;192.32;88.12;;;;;;;-2.30;65.75;97289.66;1798762;79;25881;-90
2022/03/03 03:50:28;;;;;;;186.80;87.90;;;;;;;-2.31;65.70;97287.14;1813819;79;27393;-89
2022/03/03 03:53:07;;;;;;;172.47;83.10;;;;;;;-2.31;65.77;97292.42;1812923;79;25409;-89
2022/03/03 03:55:43;;;;;;;175.62;84.37;;;;;;;-2.30;65.80;97291.46;1786746;79;25138;-88
2022/03/03 03:58:15;;;;;;;181.40;84.42;;;;;;;-2.31;65.82;97285.33;1813721;79;25624;-91
2022/03/03 04:01:00;;;;;;;;;;;;;;;;;;;;;
2022/03/03 04:03:37;;;;;;;184.93;86.10;;;;;;;-2.31;65.89;97285.81;1795617;79;25694;-93
2022/03/03 04:06:22;;;;;;;179.30;87.33;;;;;;;-2.31;65.85;97284.49;1813475;78;25106;-93
2022/03/03 04:08:54;;;;;;;194.17;88.67;;;;;;;-2.30;65.95;97289.66;1798577;78;25094;-86
2022/03/03 04:11:33;;;;;;;181.57;86.45;;;;;;;-2.31;65.97;97289.78;1816487;79;25965;-86
2022/03/03 04:14:02;;;;;;;186.43;89.70;;;;;;;-2.30;65.96;97289.66;1753289;80;25400;-88
2022/03/03 04:16:35;;;;;;;189.67;88.27;;;;;;;-2.30;65.96;97288.81;1805148;79;25718;-86
2022/03/03 04:19:06;;;;;;;;;;;;;;;-2.31;66.01;97284.49;1787856;79;25628;-86
2022/03/03 04:24:32;;;;;;;190.57;89.05;;;;;;;-2.32;66.12;97288.11;1782880;79;25716;-90
2022/03/03 04:27:11;;;;;;;181.28;86.32;;;;;;;-2.32;66.09;97292.08;1798527;79;25432;-86
2022/03/03 04:29:50;;;;;;;187.72;85.75;;;;;;;-2.34;66.08;97286.92;1801044;79;25964;-85
2022/03/03 04:32:37;;;;;;;195.00;88.40;;;;;;;-2.31;66.02;97284.01;1783115;79;25152;-86
2022/03/03 04:35:11;;;;;;;191.47;90.30;;;;;;;-2.33;65.91;97285.11;1780542;79;25566;-86
2022/03/03 04:38:03;;;;;;;;;;;;;;;;;;;;;
2022/03/03 04:40:21;;;;;;;179.55;84.60;;;;;;;-2.35;65.97;97285.23;1789551;79;25171;-86
2022/03/03 04:42:52;;;;;;;186.03;87.90;;;;;;;-2.37;65.95;97285.02;1783678;79;27201;-88
2022/03/03 04:45:32;;;;;;;197.95;88.35;;;;;;;-2.37;66.01;97277.09;1781753;79;25224;-86
2022/03/03 04:48:05;;;;;;;;;;;;;;;-2.38;66.06;97282.02;1808664;79;25396;-85
2022/03/03 04:50:50;;;;;;;188.42;87.70;;;;;;;-2.36;66.27;97276.12;1806636;79;25773;-86
2022/03/03 04:53:23;;;;;;;185.48;86.57;;;;;;;-2.37;66.27;97278.41;1808564;78;25143;-87
2022/03/03 04:55:55;;;;;;;;;;;;;;;-2.38;66.31;97272.77;1810100;79;27452;-86
2022/03/03 04:58:46;;;;;;;;;;;;;;;;;;;;;
2022/03/03 05:01:52;;;;;;;184.03;87.42;;;;;;;-2.43;66.22;97267.06;1806412;78;25429;-85
2022/03/03 05:04:29;;;;;;;;;;;;;;;;;;;;;
2022/03/03 05:07:04;;;;;;;187.60;89.70;;;;;;;-2.44;66.20;97250.84;1804586;79;25112;-85
2022/03/03 05:09:36;;;;;;;189.52;89.20;;;;;;;-2.42;66.25;97239.66;1803383;78;27412;-86
2022/03/03 05:12:09;;;;;;;188.82;86.10;;;;;;;-2.41;66.20;97246.11;1803943;79;25404;-87
2022/03/03 05:14:51;;;;;;;193.82;90.72;;;;;;;-2.46;66.18;97234.28;1807954;79;25138;-86
2022/03/03 05:17:21;;;;;;;;;;;;;;;-2.54;66.03;97237.09;1805777;79;25077;-86
2022/03/03 05:20:04;;;;;;;;;;;;;;;;;;;;;
2022/03/03 05:22:47;;;;;;;202.43;94.80;;;;;;;-2.53;66.34;97232.64;1753103;79;27272;-85
2022/03/03 05:25:31;;;;;;;207.07;93.58;;;;;;;-2.54;66.36;97241.06;1657834;83;25602;-85
2022/03/03 05:28:14;;;;;;;199.17;92.65;;;;;;;-2.60;66.29;97238.97;1739755;82;25588;-85
2022/03/03 05:30:48;;;;;;;216.27;95.28;;;;;;;-2.58;66.38;97237.03;1739063;82;25712;-86
2022/03/03 05:33:22;;;;;;;191.75;94.32;;;;;;;-2.52;66.47;97242.73;1714933;82;25157;-86
2022/03/03 05:35:52;;;;;;;150.20;70.72;;;;;;;-2.47;66.49;97250.63;1714708;82;27359;-86
2022/03/03 05:38:22;;;;;;;198.23;92.05;;;;;;;-2.42;66.52;97237.02;1743599;82;25200;-86
2022/03/03 05:41:03;;;;;;;205.25;94.58;;;;;;;-2.54;66.44;97214.63;1742334;82;25739;-86
2022/03/03 05:43:35;;;;;;;188.65;89.58;;;;;;;-2.37;66.27;97234.79;1742123;82;25707;-86
2022/03/03 05:46:12;;;;;;;168.22;82.62;;;;;;;-2.50;66.12;97213.05;1664139;84;25252;-87
2022/03/03 05:49:02;;;;;;;172.93;82.08;;;;;;;-2.32;66.06;97236.55;1740126;81;25801;-86
2022/03/03 05:51:42;;;;;;;;;;;;;;;;;;;;;
2022/03/03 05:54:06;;;;;;;184.25;85.40;;;;;;;-2.24;66.10;97236.70;1706675;83;25478;-87
2022/03/03 05:56:53;;;;;;;190.90;89.00;;;;;;;-2.20;66.03;97234.14;1744954;82;25493;-86
2022/03/03 05:59:35;;;;;;;183.37;87.88;;;;;;;-2.17;65.96;97236.00;1738733;82;25211;-88
2022/03/03 06:02:06;;;;;;;188.50;87.92;;;;;;;-2.16;65.93;97239.48;1721351;82;25853;-86
2022/03/03 06:05:15;;;;;;;188.07;90.70;;;;;;;-2.14;65.94;97234.06;1745498;82;25127;-87
2022/03/03 06:08:20;;;;;;;;;;;;;;;;;;;;;
2022/03/03 06:11:19;;;;;;;194.60;90.77;;;;;;;-2.08;66.04;97226.92;1715460;81;25194;-89
2022/03/03 06:14:47;;;;;;;200.15;92.25;;;;;;;-2.05;65.88;97227.46;1624741;87;25257;-89
2022/03/03 06:17:24;;;;;;;194.55;92.88;;;;;;;-2.01;65.83;97220.09;1555347;90;26117;-85
2022/03/03 06:20:19;;;;;;;198.93;96.28;;;;;;;-1.97;65.87;97231.59;1555657;92;25304;-85
2022/03/03 06:22:59;;;;;;;188.65;92.25;;;;;;;-1.93;65.85;97227.69;1570310;90;26130;-85
2022/03/03 06:25:51;;;;;;;207.65;95.60;;;;;;;-1.87;65.96;97231.11;1548528;92;25428;-85
2022/03/03 06:28:42;;;;;;;194.82;94.07;;;;;;;-1.82;65.85;97235.52;1526434;93;25534;-85
2022/03/03 06:31:39;;;;;;;191.35;95.30;;;;;;;-1.79;65.84;97229.57;1555890;91;26039;-84
2022/03/03 06:34:14;;;;;;;202.22;97.02;;;;;;;-1.72;65.67;97236.84;1568989;91;25890;-86
2022/03/03 06:36:58;;;;;;;;;;;;;;;;;;;;;
2022/03/03 06:39:29;;;;;;;182.27;90.20;;;;;;;-1.65;65.45;97243.23;1559698;91;25712;-85
2022/03/03 06:42:09;;;;;;;178.68;85.97;;;;;;;-1.60;65.24;97233.56;1559876;89;25587;-84
2022/03/03 06:47:49;;;;;;;;;;;;;;;;;;;;;
2022/03/03 06:50:20;;;;;;;172.78;80.40;;;;;;;-1.40;64.80;97225.94;1617090;86;25741;-84
2022/03/03 06:52:58;;;;;;;197.47;93.82;;;;;;;-1.43;64.81;97223.56;1622277;85;25208;-84
2022/03/03 06:55:27;;;;;;;209.30;97.08;;;;;;;-1.41;64.91;97220.29;1663209;85;25587;-84
2022/03/03 06:58:01;;;;;;;213.50;99.90;;;;;;;-1.36;64.92;97224.69;1680062;85;27775;-84
2022/03/03 07:00:35;;;;;;;197.78;93.17;;;;;;;-1.33;64.88;97228.87;1685424;85;25232;-83
2022/03/03 07:03:27;;;;;;;189.85;89.90;;;;;;;-1.24;64.90;97225.36;1657650;86;25527;-84
2022/03/03 07:05:58;;;;;;;194.47;92.65;;;;;;;-1.21;64.66;97227.73;1685271;85;25831;-84
2022/03/03 07:08:29;;;;;;;189.45;90.03;;;;;;;-1.16;65.02;97224.98;1686791;85;25202;-84
2022/03/03 07:11:01;;;;;;;149.07;74.67;;;;;;;-1.07;64.95;97225.93;1682611;85;27351;-85
2022/03/03 07:13:38;;;;;;;107.60;53.08;;;;;;;-0.99;64.88;97223.42;1688158;84;25242;-83
2022/03/03 07:16:34;;;;;;;144.30;67.05;;;;;;;-0.89;64.58;97225.55;1662929;85;25249;-84
2022/03/03 07:22:39;;;;;;;;;;;;;;;;;;;;;
2022/03/03 07:25:28;;;;;;;;;;;;;;;;;;;;;
2022/03/03 07:28:04;;;;;;;128.60;65.42;;;;;;;-0.50;63.76;97233.34;1766918;80;25482;-85
2022/03/03 07:30:38;;;;;;;;;;;;;;;-0.49;63.61;97232.37;1761914;80;25340;-85
2022/03/03 07:33:18;;;;;;;98.70;51.90;;;;;;;-0.46;63.46;97234.70;1747341;82;26561;-85
2022/03/03 07:35:49;;;;;;;108.65;52.17;;;;;;;-0.39;63.08;97232.66;1742222;82;25510;-85
2022/03/03 07:38:27;;;;;;;120.20;56.18;;;;;;;-0.27;62.85;97225.83;1747994;81;27859;-84
2022/03/03 07:40:59;;;;;;;117.77;57.13;;;;;;;-0.13;62.73;97226.66;1767551;80;25726;-85
2022/03/03 07:46:20;;;;;;;119.15;57.53;;;;;;;0.08;62.65;97233.84;1739827;82;25497;-83
2022/03/03 07:48:59;;;;;;;130.03;61.33;;;;;;;0.24;62.54;97228.67;1747215;82;25538;-83
2022/03/03 07:54:35;;;;;;;131.70;64.03;;;;;;;0.52;62.04;97219.30;1776343;80;25467;-83
2022/03/03 07:57:13;;;;;;;101.75;51.95;;;;;;;0.47;61.88;97212.31;1781253;77;25457;-85
2022/03/03 08:00:15;;;;;;;121.72;61.15;;;;;;;0.52;61.74;97224.61;1762549;80;25756;-84
2022/03/03 08:03:02;;;;;;;116.47;56.50;;;;;;;0.63;61.62;97226.53;1787331;79;25365;-83
2022/03/03 08:05:33;;;;;;;106.22;53.87;;;;;;;0.82;61.35;97220.22;1746666;80;25931;-83
2022/03/03 08:11:15;;;;;;;104.07;52.25;;;;;;;1.12;60.63;97222.06;1783498;80;25437;-82
2022/03/03 08:13:51;;;;;;;116.00;54.33;;;;;;;1.26;60.32;97223.65;1783452;79;25459;-82
2022/03/03 08:16:21;;;;;;;107.78;54.45;;;;;;;1.37;60.12;97219.87;1784097;79;25453;-83
2022/03/03 08:19:04;;;;;;;;;;;;;;;;;;;;;
2022/03/03 08:21:45;;;;;;;109.15;54.18;;;;;;;1.63;59.47;97221.16;1791686;79;25308;-82
2022/03/03 08:24:22;;;;;;;110.22;55.30;;;;;;;1.73;59.52;97220.04;1762768;80;25373;-83
2022/03/03 08:27:06;;;;;;;105.78;53.05;;;;;;;1.81;59.10;97219.25;1756156;81;25741;-83
2022/03/03 08:29:42;;;;;;;109.40;52.50;;;;;;;1.87;59.11;97213.27;1776062;80;25465;-83
2022/03/03 08:32:13;;;;;;;86.47;44.67;;;;;;;2.04;59.09;97203.51;1785375;80;25914;-83
2022/03/03 08:35:20;;;;;;;71.17;37.98;;;;;;;2.25;58.68;97199.88;1806900;79;25417;-83
2022/03/03 08:38:13;;;;;;;62.05;35.85;;;;;;;2.43;58.17;97198.39;1788793;80;25453;-82
2022/03/03 08:40:53;;;;;;;77.57;37.73;;;;;;;2.78;57.76;97188.72;1807548;79;25890;-82
2022/03/03 08:43:35;;;;;;;70.15;36.73;;;;;;;3.06;57.03;97191.86;1783741;79;25244;-81
2022/03/03 08:46:10;;;;;;;59.00;33.78;;;;;;;3.11;56.49;97182.02;1806308;79;27344;-83
2022/03/03 08:48:41;;;;;;;67.40;32.98;;;;;;;3.34;56.43;97188.80;1759403;80;25437;-82
2022/03/03 08:51:18;;;;;;;59.77;33.45;;;;;;;3.50;55.97;97190.09;1762693;78;25689;-83
2022/03/03 08:53:56;;;;;;;59.50;32.15;;;;;;;3.62;55.43;97182.84;1787356;79;25515;-85
2022/03/03 08:56:33;;;;;;;59.90;33.28;;;;;;;3.78;55.43;97181.11;1810654;79;25562;-85
2022/03/03 08:59:15;;;;;;;55.17;31.55;;;;;;;3.77;54.25;97174.94;1747268;81;25879;-83
2022/03/03 09:01:56;;;;;;;59.60;32.42;;;;;;;3.84;54.68;97177.25;1790890;79;25417;-83
2022/03/03 09:04:29;;;;;;;53.85;31.45;;;;;;;4.33;54.42;97175.12;1787911;79;25478;-83
2022/03/03 09:07:29;;;;;;;;;;;;;;;;;;;;;
2022/03/03 09:10:17;;;;;;;54.63;31.73;;;;;;;5.10;53.55;97168.25;1730461;80;25597;-84
2022/03/03 09:12:38;;;;;;;55.35;33.23;;;;;;;5.33;52.91;97174.36;1790537;79;25583;-82
2022/03/03 09:15:18;;;;;;;51.92;32.48;;;;;;;5.52;52.10;97170.31;1766371;80;25595;-82
2022/03/03 09:17:54;;;;;;;52.88;31.42;;;;;;;5.59;51.81;97165.03;1810115;79;25456;-84
2022/03/03 09:20:24;;;;;;;45.60;30.48;;;;;;;5.80;51.53;97165.09;1810060;79;25681;-81
2022/03/03 09:22:58;;;;;;;51.88;29.75;;;;;;;5.87;50.95;97157.16;1787840;79;25510;-82
2022/03/03 09:25:36;;;;;;;47.25;29.30;;;;;;;6.04;50.69;97155.42;1809922;79;25864;-82
2022/03/03 09:28:34;;;;;;;46.30;28.92;;;;;;;6.19;50.47;97157.23;1798919;79;25360;-83
2022/03/03 09:31:25;;;;;;;41.00;27.37;;;;;;;6.32;50.13;97143.47;1778021;79;25725;-82
2022/03/03 09:34:11;;;;;;;48.80;28.90;;;;;;;6.46;49.40;97139.90;1816690;78;25723;-83
2022/03/03 09:37:10;;;;;;;46.40;27.95;;;;;;;6.52;49.07;97140.16;1779541;79;25737;-81
2022/03/03 09:39:47;;;;;;;46.15;29.60;;;;;;;6.36;48.33;97133.20;1715846;81;26104;-82
2022/03/03 09:42:24;;;;;;;43.08;25.65;;;;;;;6.20;47.38;97135.61;1658896;83;25572;-83
2022/03/03 09:45:18;;;;;;;;;;;;;;;;;;;;;
2022/03/03 09:50:39;;;;;;;39.70;24.82;;;;;;;6.72;47.41;97135.80;1625182;87;25319;-83
2022/03/03 09:53:15;;;;;;;39.20;23.87;;;;;;;6.77;46.93;97127.47;1662586;85;27914;-83
2022/03/03 09:56:00;;;;;;;41.45;23.42;;;;;;;6.84;46.52;97124.34;1647065;87;25339;-81
2022/03/03 09:58:31;;;;;;;37.73;23.55;;;;;;;6.88;46.76;97128.27;1636749;87;25443;-82
2022/03/03 10:01:13;;;;;;;41.90;26.48;;;;;;;6.95;46.07;97124.83;1610767;87;25736;-84
2022/03/03 10:03:49;;;;;;;41.65;26.37;;;;;;;7.27;46.10;97125.55;1621396;87;25558;-82
2022/03/03 10:06:29;;;;;;;39.08;24.20;;;;;;;7.56;45.83;97132.03;1617335;88;26049;-82
2022/03/03 10:09:17;;;;;;;42.50;25.68;;;;;;;7.80;45.17;97128.00;1603710;87;25629;-82
2022/03/03 10:12:29;;;;;;;;;;;;;;;;;;;;;
2022/03/03 10:15:10;;;;;;;45.78;28.25;;;;;;;8.15;44.57;97131.44;1621164;87;25264;-84
2022/03/03 10:17:54;;;;;;;47.55;28.60;;;;;;;8.22;43.85;97129.58;1627417;87;25284;-85
2022/03/03 10:20:22;;;;;;;44.48;27.48;;;;;;;8.42;43.91;97132.88;1620466;86;25995;-83
2022/03/03 10:26:02;;;;;;;46.73;28.07;;;;;;;8.88;42.86;97117.59;1661236;86;25516;-85
2022/03/03 10:28:47;;;;;;;44.95;27.15;;;;;;;9.00;42.56;97118.62;1668666;86;25418;-85
2022/03/03 10:31:33;;;;;;;;;;;;;;;;;;;;;
2022/03/03 10:34:05;;;;;;;43.17;27.20;;;;;;;9.17;41.34;97114.16;1659455;86;28083;-81
2022/03/03 10:40:31;;;;;;;42.98;25.65;;;;;;;8.83;41.38;97105.25;1606492;88;25595;-83
2022/03/03 10:43:04;;;;;;;42.03;26.35;;;;;;;9.03;41.14;97101.22;1591101;90;25519;-89
2022/03/03 10:45:51;;;;;;;;;;;;;;;;;;;;;
2022/03/03 10:48:24;;;;;;;37.78;25.90;;;;;;;9.02;40.40;97100.91;1567527;90;26227;-81
2022/03/03 10:51:06;;;;;;;;;;;;;;;;;;;;;
2022/03/03 10:53:36;;;;;;;39.90;23.83;;;;;;;8.89;40.59;97098.23;1672930;85;25646;-82
2022/03/03 10:58:59;;;;;;;30.97;20.45;;;;;;;8.90;39.57;97091.30;1632013;86;25546;-81
2022/03/03 11:02:11;;;;;;;;;;;;;;;;;;;;;
2022/03/03 11:04:41;;;;;;;;;;;;;;;;;;;;;
2022/03/03 11:07:23;;;;;;;35.68;21.55;;;;;;;9.25;39.13;97082.95;1652134;86;25480;-83
2022/03/03 11:10:13;;;;;;;35.52;22.27;;;;;;;9.51;39.04;97081.54;1616731;87;25648;-82
2022/03/03 11:12:43;;;;;;;33.67;21.93;;;;;;;9.79;38.43;97077.16;1623610;87;25547;-84
2022/03/03 11:15:32;;;;;;;33.08;21.60;;;;;;;9.76;38.19;97081.66;1636315;87;27368;-83
2022/03/03 11:17:58;;;;;;;34.03;21.15;;;;;;;9.85;37.84;97074.14;1619951;87;25332;-80
2022/03/03 11:20:26;;;;;;;32.73;21.90;;;;;;;10.09;37.62;97079.61;1632538;86;26110;-82
2022/03/03 11:23:15;;;;;;;30.97;20.77;;;;;;;10.30;37.25;97067.68;1612577;86;25531;-81
2022/03/03 11:26:01;;;;;;;31.75;20.80;;;;;;;10.56;36.91;97069.37;1680649;83;26074;-82
2022/03/03 11:28:49;;;;;;;33.48;21.15;;;;;;;10.78;35.88;97063.06;1634316;84;28370;-82
2022/03/03 11:31:30;;;;;;;34.50;22.58;;;;;;;10.76;36.01;97059.75;1683445;84;25619;-82
2022/03/03 11:34:39;;;;;;;33.55;22.27;;;;;;;10.85;35.85;97054.40;1695328;84;25471;-84
2022/03/03 11:37:24;;;;;;;32.55;22.20;;;;;;;10.69;35.67;97057.13;1661760;84;25461;-81
2022/03/03 11:40:16;;;;;;;39.75;25.60;;;;;;;10.82;35.08;97051.61;1688528;84;25471;-83
2022/03/03 11:43:12;;;;;;;38.05;23.60;;;;;;;11.03;35.63;97050.37;1700640;83;26007;-83
2022/03/03 11:46:05;;;;;;;39.80;25.35;;;;;;;11.21;35.13;97058.21;1718289;83;25500;-84
2022/03/03 11:48:46;;;;;;;42.75;26.30;;;;;;;11.41;34.96;97049.35;1695408;83;25544;-80
2022/03/03 11:51:42;;;;;;;42.85;28.02;;;;;;;11.24;34.46;97044.23;1717967;81;25471;-81
2022/03/03 11:54:31;;;;;;;46.18;30.00;;;;;;;11.44;34.50;97050.27;1692224;84;25469;-81
2022/03/03 12:00:19;;;;;;;44.38;27.93;;;;;;;11.75;34.40;97028.98;1783771;79;26043;-83
2022/03/03 12:03:09;;;;;;;42.15;27.70;;;;;;;12.32;33.86;97018.09;1807252;79;25444;-82
2022/03/03 12:06:18;;;;;;;42.33;27.15;;;;;;;12.65;34.13;97017.59;1752086;79;26497;-83
2022/03/03 12:09:07;;;;;;;41.40;27.45;;;;;;;12.43;32.93;97016.50;1784376;79;26010;-83
2022/03/03 12:11:47;;;;;;;44.35;28.80;;;;;;;12.04;32.85;97015.20;1802655;79;26450;-85
2022/03/03 12:14:51;;;;;;;;;;;;;;;;;;;;;
2022/03/03 12:18:13;;;;;;;;;;;;;;;;;;;;;
2022/03/03 12:20:46;;;;;;;43.08;29.40;;;;;;;11.82;33.09;97006.78;1775461;79;25197;-84
2022/03/03 12:23:49;;;;;;;42.95;28.32;;;;;;;11.93;32.45;96998.41;1777199;80;25373;-83
2022/03/03 12:26:33;;;;;;;;;;;;;;;;;;;;;
2022/03/03 12:29:08;;;;;;;39.95;27.27;;;;;;;11.55;32.36;97006.26;1688170;83;25532;-82
2022/03/03 12:31:50;;;;;;;38.53;25.32;;;;;;;11.59;32.86;97002.06;1688330;84;25981;-82
2022/03/03 12:34:37;;;;;;;44.35;26.12;;;;;;;11.81;32.32;97000.55;1688243;85;25574;-82
2022/03/03 12:37:09;;;;;;;37.00;23.77;;;;;;;11.94;32.62;97001.41;1662556;85;25518;-82
2022/03/03 12:40:05;;;;;;;35.95;24.37;;;;;;;12.08;32.32;97001.50;1688541;85;26247;-83
2022/03/03 12:43:02;;;;;;;34.70;22.05;;;;;;;12.12;31.67;96993.23;1652412;86;26175;-82
2022/03/03 12:45:31;;;;;;;32.93;22.30;;;;;;;12.06;31.83;96992.81;1653509;86;25494;-83
2022/03/03 12:48:08;;;;;;;37.48;23.38;;;;;;;11.62;30.48;96998.87;1655845;86;25485;-81
2022/03/03 12:50:40;;;;;;;35.17;22.75;;;;;;;11.08;30.74;97001.09;1655510;86;25458;-82
2022/03/03 12:53:17;;;;;;;36.63;23.75;;;;;;;10.30;30.26;96996.72;1672471;83;25696;-82
2022/03/03 12:55:55;;;;;;;33.80;22.50;;;;;;;10.09;31.33;96998.70;1714171;83;25612;-82
2022/03/03 13:01:27;;;;;;;34.83;22.10;;;;;;;10.78;31.15;96996.92;1594787;87;25542;-81
2022/03/03 13:04:14;;;;;;;38.00;23.95;;;;;;;10.96;30.75;96991.56;1633365;86;25474;-84
2022/03/03 13:06:43;;;;;;;37.03;22.37;;;;;;;11.14;30.29;96990.73;1641519;85;27597;-82
2022/03/03 13:09:19;;;;;;;38.02;24.72;;;;;;;10.96;30.57;96992.91;1636547;87;25546;-82
2022/03/03 13:12:05;;;;;;;39.92;24.63;;;;;;;10.79;29.82;96993.17;1637082;87;25517;-82
2022/03/03 13:14:30;;;;;;;37.48;23.07;;;;;;;10.51;30.65;96990.09;1653954;86;25527;-83
2022/03/03 13:16:58;;;;;;;41.25;25.90;;;;;;;10.80;30.82;96992.95;1655316;83;26024;-83
2022/03/03 13:20:03;;;;;;;41.70;23.83;;;;;;;10.88;30.04;96994.53;1645362;83;26093;-83
2022/03/03 13:22:53;;;;;;;28.00;16.93;;;;;;;10.90;30.61;96997.84;1715855;82;25254;-84
2022/03/03 13:25:32;;;;;;;;;;;;;;;;;;;;;
2022/03/03 13:28:10;;;;;;;29.77;19.05;;;;;;;10.21;28.52;96996.17;1661804;85;26256;-83
2022/03/03 13:31:48;;;;;;;;;;;;;;;;;;;;;
2022/03/03 13:34:06;;;;;;;29.30;19.32;;;;;;;10.12;28.60;96992.06;1697439;82;26194;-82
2022/03/03 13:36:53;;;;;;;34.80;21.80;;;;;;;10.27;28.95;96994.45;1739571;82;26706;-83
2022/03/03 13:39:30;;;;;;;41.23;26.60;;;;;;;9.47;28.67;96999.47;1731409;82;25230;-83
2022/03/03 13:42:24;;;;;;;44.60;27.48;;;;;;;9.19;29.85;96996.26;1739247;82;25553;-84
2022/03/03 13:45:06;;;;;;;46.98;28.65;;;;;;;9.20;29.86;96987.14;1738320;82;25171;-84
2022/03/03 13:47:42;;;;;;;50.48;30.95;;;;;;;9.31;30.28;96989.17;1703294;83;27362;-82
2022/03/03 13:50:19;;;;;;;47.88;29.80;;;;;;;9.44;30.72;96987.77;1713242;82;25505;-83